createdAt,value
2023-05-29T00:02:21.047Z,100350.63
2023-05-29T00:05:23.556Z,100343.56
2023-05-29T00:08:26.236Z,100339.19
2023-05-29T00:11:28.707Z,100341.81
2023-05-29T00:14:31.175Z,100342.69
2023-05-29T00:17:33.743Z,100343.56
2023-05-29T00:20:37.156Z,100340.91
2023-05-29T00:23:40.423Z,100340.03
2023-05-29T00:26:42.942Z,100350.63
2023-05-29T00:29:46.293Z,100340.06
2023-05-29T00:32:48.894Z,100341.78
2023-05-29T00:35:52.483Z,100347.94
2023-05-29T00:38:55.021Z,100333.84
2023-05-29T00:41:58.142Z,100336.47
2023-05-29T00:45:00.566Z,100340.00
2023-05-29T00:48:04.952Z,100333.81
2023-05-29T00:51:07.679Z,100335.59
2023-05-29T00:54:12.160Z,100342.59
2023-05-29T00:57:14.709Z,100339.00
2023-05-29T01:00:17.729Z,100333.72
2023-05-29T01:03:21.032Z,100334.53
2023-05-29T01:06:24.457Z,100336.31
2023-05-29T01:09:27.252Z,100324.91
2023-05-29T01:12:44.975Z,100337.19
2023-05-29T01:15:53.531Z,100333.69
2023-05-29T01:19:16.514Z,100328.44
2023-05-29T01:22:34.458Z,100328.41
2023-05-29T01:25:58.486Z,100325.75
2023-05-29T01:29:01.919Z,100333.66
2023-05-29T01:32:04.886Z,100319.59
2023-05-29T01:35:07.791Z,100321.34
2023-05-29T01:38:10.261Z,100320.44
2023-05-29T01:41:12.635Z,100319.59
2023-05-29T01:44:15.313Z,100309.03
2023-05-29T01:47:17.754Z,100322.25
2023-05-29T01:50:20.390Z,100319.56
2023-05-29T01:53:24.139Z,100315.16
2023-05-29T01:56:28.630Z,100311.56
2023-05-29T01:59:31.549Z,100309.81
2023-05-29T02:02:34.137Z,100311.59
2023-05-29T02:05:36.601Z,100303.72
2023-05-29T02:08:39.219Z,100306.31
2023-05-29T02:11:46.741Z,100298.41
2023-05-29T02:14:49.381Z,100301.97
2023-05-29T02:17:51.829Z,100294.94
2023-05-29T02:20:57.195Z,100289.66
2023-05-29T02:23:59.858Z,100296.66
2023-05-29T02:27:02.303Z,100297.53
2023-05-29T02:30:06.331Z,100293.09
2023-05-29T02:33:09.805Z,100293.16
2023-05-29T02:36:12.984Z,100300.13
2023-05-29T02:39:15.618Z,100293.97
2023-05-29T02:42:18.107Z,100289.56
2023-05-29T02:45:20.681Z,100279.81
2023-05-29T02:48:23.480Z,100285.06
2023-05-29T02:51:26.548Z,100277.16
2023-05-29T02:54:29.661Z,100279.75
2023-05-29T02:57:32.485Z,100278.00
2023-05-29T03:00:37.988Z,100277.97
2023-05-29T03:03:40.514Z,100290.25
2023-05-29T03:06:43.086Z,100286.75
2023-05-29T03:09:45.831Z,100280.69
2023-05-29T03:12:48.295Z,100280.69
2023-05-29T03:15:52.212Z,100292.09
2023-05-29T03:18:55.021Z,100288.59
2023-05-29T03:21:57.597Z,100294.81
2023-05-29T03:25:00.545Z,100294.88
2023-05-29T03:28:02.749Z,100301.94
2023-05-29T03:31:05.623Z,100300.97
2023-05-29T03:34:08.328Z,100303.59
2023-05-29T03:37:15.074Z,100302.75
2023-05-29T03:40:17.386Z,100315.97
2023-05-29T03:43:19.761Z,100315.06
2023-05-29T03:46:23.900Z,100316.84
2023-05-29T03:49:26.603Z,100322.97
2023-05-29T03:52:29.084Z,100318.56
2023-05-29T03:55:32.630Z,100329.16
2023-05-29T03:58:37.515Z,100329.09
2023-05-29T04:01:40.566Z,100321.19
2023-05-29T04:04:44.055Z,100336.19
2023-05-29T04:07:47.258Z,100325.66
2023-05-29T04:10:55.005Z,100318.66
2023-05-29T04:13:58.562Z,100330.09
2023-05-29T04:17:01.178Z,100330.19
2023-05-29T04:20:09.416Z,100324.03
2023-05-29T04:23:12.732Z,100329.31
2023-05-29T04:26:15.254Z,100334.63
2023-05-29T04:29:18.382Z,100334.63
2023-05-29T04:32:22.547Z,100335.53
2023-05-29T04:35:25.030Z,100324.97
2023-05-29T04:38:33.088Z,100332.88
2023-05-29T04:41:36.548Z,100338.19
2023-05-29T04:44:41.058Z,100347.00
2023-05-29T04:47:46.692Z,100340.91
2023-05-29T04:50:49.737Z,100341.81
2023-05-29T04:53:55.142Z,100337.41
2023-05-29T04:56:57.827Z,100347.13
2023-05-29T05:00:09.593Z,100341.81
2023-05-29T05:03:17.758Z,100346.25
2023-05-29T05:06:20.669Z,100345.31
2023-05-29T05:09:23.266Z,100340.94
2023-05-29T05:12:26.291Z,100346.22
2023-05-29T05:15:29.883Z,100345.34
2023-05-29T05:18:32.560Z,100352.34
2023-05-29T05:21:55.325Z,100351.50
2023-05-29T05:25:00.731Z,100346.19
2023-05-29T05:28:04.810Z,100349.69
2023-05-29T05:31:10.057Z,100341.72
2023-05-29T05:34:13.033Z,100346.06
2023-05-29T05:37:17.136Z,100339.88
2023-05-29T05:40:19.927Z,100342.50
2023-05-29T05:43:32.013Z,100347.72
2023-05-29T05:46:50.872Z,100357.34
2023-05-29T05:49:55.664Z,100348.53
2023-05-29T05:52:59.732Z,100354.66
2023-05-29T05:56:02.718Z,100351.06
2023-05-29T05:59:06.944Z,100352.75
2023-05-29T06:02:09.991Z,100357.09
2023-05-29T06:05:13.369Z,100349.09
2023-05-29T06:08:17.497Z,100356.91
2023-05-29T06:11:20.335Z,100362.16
2023-05-29T06:14:24.965Z,100361.16
2023-05-29T06:17:29.221Z,100368.06
2023-05-29T06:20:32.131Z,100365.22
2023-05-29T06:23:34.950Z,100374.78
2023-05-29T06:26:38.715Z,100369.28
2023-05-29T06:29:43.590Z,100378.84
2023-05-29T06:32:46.854Z,100385.91
2023-05-29T06:35:49.996Z,100383.19
2023-05-29T06:38:52.989Z,100384.97
2023-05-29T06:41:55.924Z,100377.66
2023-05-29T06:44:59.144Z,100385.34
2023-05-29T06:48:02.038Z,100385.16
2023-05-29T06:51:09.669Z,100375.19
2023-05-29T06:54:24.427Z,100375.97
2023-05-29T06:57:27.358Z,100388.13
2023-05-29T07:00:30.146Z,100382.69
2023-05-29T07:03:55.396Z,100386.22
2023-05-29T07:06:58.191Z,100375.41
2023-05-29T07:10:00.816Z,100387.34
2023-05-29T07:13:03.969Z,100389.50
2023-05-29T07:16:20.785Z,100391.78
2023-05-29T07:19:33.699Z,100398.50
2023-05-29T07:22:42.588Z,100390.34
2023-05-29T07:25:44.991Z,100393.63
2023-05-29T07:28:47.595Z,100398.66
2023-05-29T07:31:53.403Z,100407.19
2023-05-29T07:34:58.058Z,100398.28
2023-05-29T07:38:01.514Z,100416.47
2023-05-29T07:41:04.087Z,100427.09
2023-05-29T07:44:08.087Z,100430.25
2023-05-29T07:47:10.754Z,100431.34
2023-05-29T07:50:17.329Z,100425.09
2023-05-29T07:53:19.999Z,100427.41
2023-05-29T07:56:23.663Z,100426.69
2023-05-29T07:59:26.405Z,100421.69
2023-05-29T08:02:29.174Z,100433.94
2023-05-29T08:05:51.673Z,100421.97
2023-05-29T08:08:56.160Z,100429.84
2023-05-29T08:12:00.518Z,100426.00
2023-05-29T08:15:04.620Z,100414.88
2023-05-29T08:18:08.099Z,100424.78
2023-05-29T08:21:11.876Z,100430.91
2023-05-29T08:24:15.573Z,100432.66
2023-05-29T08:27:18.540Z,100435.75
2023-05-29T08:30:21.571Z,100423.81
2023-05-29T08:33:24.152Z,100433.16
2023-05-29T08:36:26.985Z,100423.22
2023-05-29T08:39:29.843Z,100419.34
2023-05-29T08:42:34.892Z,100423.03
2023-05-29T08:45:38.842Z,100421.41
2023-05-29T08:48:41.747Z,100411.78
2023-05-29T08:51:44.695Z,100422.31
2023-05-29T08:54:47.428Z,100418.78
2023-05-29T08:57:49.996Z,100421.41
2023-05-29T09:00:52.771Z,100415.97
2023-05-29T09:03:55.890Z,100426.22
2023-05-29T09:06:59.998Z,100420.75
2023-05-29T09:10:02.537Z,100434.00
2023-05-29T09:13:05.498Z,100430.44
2023-05-29T09:16:08.746Z,100430.84
2023-05-29T09:19:13.651Z,100429.59
2023-05-29T09:22:16.522Z,100425.59
2023-05-29T09:25:22.406Z,100429.28
2023-05-29T09:28:26.585Z,100421.69
2023-05-29T09:31:29.916Z,100425.13
2023-05-29T09:34:32.546Z,100419.56
2023-05-29T09:37:36.534Z,100429.75
2023-05-29T09:40:39.654Z,100432.38
2023-05-29T09:43:42.394Z,100430.88
2023-05-29T09:46:45.903Z,100436.59
2023-05-29T09:49:48.527Z,100432.44
2023-05-29T09:52:53.527Z,100441.13
2023-05-29T09:55:57.105Z,100430.75
2023-05-29T09:59:00.271Z,100447.75
2023-05-29T10:02:08.282Z,100448.63
2023-05-29T10:05:12.893Z,100455.56
2023-05-29T10:08:16.518Z,100444.03
2023-05-29T10:11:22.888Z,100446.25
2023-05-29T10:14:25.476Z,100448.88
2023-05-29T10:17:32.497Z,100464.50
2023-05-29T10:20:35.098Z,100454.09
2023-05-29T10:23:38.051Z,100460.09
2023-05-29T10:26:41.593Z,100452.91
2023-05-29T10:29:43.916Z,100458.28
2023-05-29T10:33:09.073Z,100446.13
2023-05-29T10:36:19.316Z,100445.75
2023-05-29T10:39:22.988Z,100451.97
2023-05-29T10:42:48.919Z,100445.09
2023-05-29T10:45:52.442Z,100440.94
2023-05-29T10:48:55.657Z,100439.31
2023-05-29T10:51:59.991Z,100433.63
2023-05-29T10:55:05.556Z,100439.63
2023-05-29T10:58:09.017Z,100426.81
2023-05-29T11:01:11.754Z,100421.75
2023-05-29T11:04:17.091Z,100426.56
2023-05-29T11:07:53.919Z,100414.22
2023-05-29T11:10:56.931Z,100427.28
2023-05-29T11:14:04.268Z,100426.16
2023-05-29T11:17:06.760Z,100417.25
2023-05-29T11:20:16.086Z,100420.31
2023-05-29T11:23:19.591Z,100408.53
2023-05-29T11:26:24.034Z,100414.47
2023-05-29T11:29:28.923Z,100415.56
2023-05-29T11:32:31.410Z,100413.53
2023-05-29T11:35:33.733Z,100411.94
2023-05-29T11:38:36.794Z,100407.97
2023-05-29T11:41:39.491Z,100416.47
2023-05-29T11:44:41.896Z,100401.97
2023-05-29T11:47:58.104Z,100392.50
2023-05-29T11:51:07.463Z,100389.00
2023-05-29T11:54:13.017Z,100387.78
2023-05-29T11:57:21.785Z,100381.72
2023-05-29T12:00:25.321Z,100367.63
2023-05-29T12:03:28.668Z,100357.72
2023-05-29T12:06:39.732Z,100352.81
2023-05-29T12:09:42.298Z,100352.16
2023-05-29T12:12:55.231Z,100339.75
2023-05-29T12:15:59.940Z,100347.94
2023-05-29T12:19:02.307Z,100350.28
2023-05-29T12:22:05.536Z,100345.78
2023-05-29T12:25:14.956Z,100340.25
2023-05-29T12:28:20.890Z,100330.97
2023-05-29T12:31:30.311Z,100326.50
2023-05-29T12:34:39.048Z,100316.56
2023-05-29T12:37:48.820Z,100317.75
2023-05-29T12:40:52.802Z,100323.78
2023-05-29T12:43:56.442Z,100323.00
2023-05-29T12:46:59.262Z,100335.53
2023-05-29T12:50:21.981Z,100319.31
2023-05-29T12:53:29.103Z,100314.09
2023-05-29T12:56:31.564Z,100316.75
2023-05-29T12:59:34.396Z,100314.31
2023-05-29T13:02:37.129Z,100312.47
2023-05-29T13:05:39.838Z,100322.03
2023-05-29T13:08:42.276Z,100307.25
2023-05-29T13:11:44.847Z,100314.09
2023-05-29T13:14:47.461Z,100314.59
2023-05-29T13:17:50.716Z,100312.75
2023-05-29T13:20:53.312Z,100316.34
2023-05-29T13:23:56.140Z,100315.94
2023-05-29T13:26:59.187Z,100309.78
2023-05-29T13:30:02.003Z,100316.97
2023-05-29T13:33:04.561Z,100310.66
2023-05-29T13:36:09.167Z,100306.84
2023-05-29T13:39:12.140Z,100306.59
2023-05-29T13:42:14.602Z,100295.34
2023-05-29T13:45:17.426Z,100296.59
2023-05-29T13:48:20.477Z,100300.81
2023-05-29T13:51:23.287Z,100306.66
2023-05-29T13:54:26.166Z,100300.53
2023-05-29T13:57:29.039Z,100296.34
2023-05-29T14:00:31.664Z,100306.03
2023-05-29T14:03:34.380Z,100302.56
2023-05-29T14:06:38.068Z,100292.88
2023-05-29T14:09:41.051Z,100297.09
2023-05-29T14:12:43.695Z,100289.78
2023-05-29T14:15:46.364Z,100284.59
2023-05-29T14:18:49.809Z,100290.03
2023-05-29T14:21:53.051Z,100280.19
2023-05-29T14:24:57.002Z,100283.16
2023-05-29T14:27:59.415Z,100276.16
2023-05-29T14:31:01.967Z,100274.59
2023-05-29T14:34:04.532Z,100286.50
2023-05-29T14:37:07.100Z,100288.50
2023-05-29T14:40:10.317Z,100284.81
2023-05-29T14:43:12.883Z,100278.91
2023-05-29T14:46:15.394Z,100282.78
2023-05-29T14:49:17.885Z,100281.75
2023-05-29T14:52:20.377Z,100277.03
2023-05-29T14:55:22.794Z,100273.56
2023-05-29T14:58:25.540Z,100279.66
2023-05-29T15:01:28.585Z,100288.88
2023-05-29T15:04:31.099Z,100273.91
2023-05-29T15:07:35.342Z,100281.56
2023-05-29T15:10:37.821Z,100273.56
2023-05-29T15:13:40.397Z,100268.97
2023-05-29T15:16:44.032Z,100268.81
2023-05-29T15:19:46.548Z,100261.25
2023-05-29T15:22:49.369Z,100267.66
2023-05-29T15:25:51.935Z,100266.09
2023-05-29T15:28:54.540Z,100263.78
2023-05-29T15:31:57.087Z,100266.81
2023-05-29T15:34:59.718Z,100260.91
2023-05-29T15:38:02.234Z,100263.28
2023-05-29T15:41:04.718Z,100262.72
2023-05-29T15:44:07.178Z,100268.72
2023-05-29T15:47:09.583Z,100262.09
2023-05-29T15:50:12.137Z,100251.88
2023-05-29T15:53:15.061Z,100256.28
2023-05-29T15:56:17.601Z,100260.63
2023-05-29T15:59:20.095Z,100265.72
2023-05-29T16:02:22.563Z,100259.16
2023-05-29T16:05:25.115Z,100257.06
2023-05-29T16:08:27.538Z,100256.91
2023-05-29T16:11:30.294Z,100253.75
2023-05-29T16:14:32.736Z,100254.56
2023-05-29T16:17:36.177Z,100248.84
2023-05-29T16:20:39.022Z,100246.09
2023-05-29T16:23:41.680Z,100240.69
2023-05-29T16:26:44.423Z,100249.03
2023-05-29T16:29:46.890Z,100254.44
2023-05-29T16:32:49.484Z,100256.94
2023-05-29T16:35:52.191Z,100249.63
2023-05-29T16:38:54.597Z,100254.06
2023-05-29T16:41:57.179Z,100247.72
2023-05-29T16:44:59.553Z,100250.19
2023-05-29T16:48:02.195Z,100258.94
2023-05-29T16:51:04.687Z,100258.63
2023-05-29T16:54:07.258Z,100247.53
2023-05-29T16:57:12.712Z,100258.19
2023-05-29T17:00:15.885Z,100248.03
2023-05-29T17:03:18.384Z,100257.16
2023-05-29T17:06:20.952Z,100258.38
2023-05-29T17:09:27.873Z,100261.31
2023-05-29T17:12:30.607Z,100252.78
2023-05-29T17:15:33.711Z,100262.97
2023-05-29T17:18:36.173Z,100262.59
2023-05-29T17:21:38.663Z,100265.56
2023-05-29T17:24:41.190Z,100263.31
2023-05-29T17:27:43.858Z,100264.44
2023-05-29T17:30:46.426Z,100272.78
2023-05-29T17:33:49.058Z,100276.66
2023-05-29T17:36:51.632Z,100268.19
2023-05-29T17:39:54.926Z,100271.84
2023-05-29T17:42:58.032Z,100284.78
2023-05-29T17:46:00.962Z,100281.34
2023-05-29T17:49:03.742Z,100277.31
2023-05-29T17:52:09.522Z,100282.66
2023-05-29T17:55:12.067Z,100291.25
2023-05-29T17:58:14.491Z,100287.00
2023-05-29T18:01:18.342Z,100289.75
2023-05-29T18:04:21.129Z,100279.41
2023-05-29T18:07:24.022Z,100283.16
2023-05-29T18:10:27.140Z,100279.94
2023-05-29T18:13:30.323Z,100288.22
2023-05-29T18:16:39.509Z,100275.25
2023-05-29T18:19:42.123Z,100288.69
2023-05-29T18:22:44.378Z,100292.38
2023-05-29T18:25:46.697Z,100298.00
2023-05-29T18:28:49.082Z,100303.34
2023-05-29T18:31:51.538Z,100307.88
2023-05-29T18:34:54.193Z,100306.50
2023-05-29T18:37:56.893Z,100306.72
2023-05-29T18:40:59.471Z,100310.63
2023-05-29T18:44:02.195Z,100305.53
2023-05-29T18:47:04.736Z,100304.00
2023-05-29T18:50:08.277Z,100308.53
2023-05-29T18:53:10.892Z,100305.81
2023-05-29T18:56:13.325Z,100305.13
2023-05-29T18:59:15.641Z,100314.97
2023-05-29T19:02:18.387Z,100312.31
2023-05-29T19:05:21.226Z,100317.88
2023-05-29T19:08:24.079Z,100305.53
2023-05-29T19:11:26.937Z,100312.09
2023-05-29T19:14:29.761Z,100315.69
2023-05-29T19:17:32.540Z,100320.22
2023-05-29T19:20:36.215Z,100319.41
2023-05-29T19:23:39.078Z,100327.44
2023-05-29T19:26:42.843Z,100326.69
2023-05-29T19:29:45.456Z,100336.50
2023-05-29T19:32:47.857Z,100341.84
2023-05-29T19:35:50.260Z,100346.25
2023-05-29T19:38:52.710Z,100348.03
2023-05-29T19:41:55.199Z,100344.50
2023-05-29T19:44:57.709Z,100343.53
2023-05-29T19:48:00.272Z,100350.69
2023-05-29T19:51:02.574Z,100345.38
2023-05-29T19:54:04.951Z,100351.63
2023-05-29T19:57:10.390Z,100354.31
2023-05-29T20:00:13.385Z,100351.63
2023-05-29T20:03:16.578Z,100351.78
2023-05-29T20:06:18.924Z,100350.91
2023-05-29T20:09:21.444Z,100354.50
2023-05-29T20:12:23.775Z,100347.50
2023-05-29T20:15:26.472Z,100357.31
2023-05-29T20:18:29.604Z,100354.75
2023-05-29T20:21:33.374Z,100359.22
2023-05-29T20:24:35.874Z,100364.59
2023-05-29T20:27:38.480Z,100353.13
2023-05-29T20:30:42.254Z,100349.59
2023-05-29T20:33:44.683Z,100353.16
2023-05-29T20:36:47.902Z,100347.88
2023-05-29T20:39:51.056Z,100346.22
2023-05-29T20:42:56.018Z,100348.91
2023-05-29T20:45:59.476Z,100345.41
2023-05-29T20:49:02.450Z,100341.94
2023-05-29T20:52:05.226Z,100347.34
2023-05-29T20:55:08.343Z,100344.75
2023-05-29T20:58:10.711Z,100339.53
2023-05-29T21:01:13.378Z,100348.38
2023-05-29T21:04:15.982Z,100335.16
2023-05-29T21:07:18.365Z,100340.50
2023-05-29T21:10:20.826Z,100336.09
2023-05-29T21:13:23.681Z,100334.38
2023-05-29T21:16:26.276Z,100333.53
2023-05-29T21:19:28.743Z,100336.13
2023-05-29T21:22:31.884Z,100335.28
2023-05-29T21:25:34.484Z,100336.22
2023-05-29T21:28:38.583Z,100336.25
2023-05-29T21:31:41.863Z,100331.84
2023-05-29T21:34:44.422Z,100328.34
2023-05-29T21:37:47.150Z,100318.66
2023-05-29T21:40:49.633Z,100327.53
2023-05-29T21:43:52.298Z,100319.59
2023-05-29T21:46:54.795Z,100319.56
2023-05-29T21:49:58.441Z,100325.72
2023-05-29T21:53:01.580Z,100338.94
2023-05-29T21:56:04.350Z,100324.81
2023-05-29T21:59:07.811Z,100327.44
2023-05-29T22:02:10.440Z,100326.53
2023-05-29T22:05:12.967Z,100330.09
2023-05-29T22:08:15.594Z,100333.72
2023-05-29T22:11:17.996Z,100333.69
2023-05-29T22:14:20.814Z,100327.50
2023-05-29T22:17:24.992Z,100331.97
2023-05-29T22:20:27.854Z,100328.44
2023-05-29T22:23:31.887Z,100331.06
2023-05-29T22:26:34.524Z,100326.75
2023-05-29T22:29:37.003Z,100326.78
2023-05-29T22:32:42.389Z,100328.53
2023-05-29T22:35:44.975Z,100338.25
2023-05-29T22:38:47.918Z,100333.84
2023-05-29T22:41:50.405Z,100332.97
2023-05-29T22:44:52.888Z,100325.03
2023-05-29T22:47:55.381Z,100327.69
2023-05-29T22:50:58.164Z,100327.69
2023-05-29T22:54:01.804Z,100323.28
2023-05-29T22:57:06.292Z,100327.72
2023-05-29T23:00:10.015Z,100320.66
2023-05-29T23:03:14.455Z,100310.06
2023-05-29T23:06:17.137Z,100306.56
2023-05-29T23:09:19.984Z,100312.72
2023-05-29T23:12:22.801Z,100315.34
2023-05-29T23:15:27.918Z,100314.50
2023-05-29T23:18:31.068Z,100320.69
2023-05-29T23:21:34.019Z,100310.97
2023-05-29T23:24:39.751Z,100312.75
2023-05-29T23:27:42.172Z,100310.97
2023-05-29T23:30:44.762Z,100310.09
2023-05-29T23:33:48.178Z,100310.97
2023-05-29T23:36:50.760Z,100314.50
2023-05-29T23:39:53.366Z,100305.69
2023-05-29T23:42:56.057Z,100303.06
2023-05-29T23:45:58.509Z,100309.22
2023-05-29T23:49:01.387Z,100318.91
2023-05-29T23:52:03.784Z,100316.25
2023-05-29T23:55:07.502Z,100309.22
2023-05-29T23:58:09.961Z,100305.72
